Time;durP1;ratioP1;P1;durP2;ratioP2;P2;SDS_P1;SDS_P2;PMS_P1;PMS_P2;Temp;Humidity;BMP_temperature;BMP_pressure;BME280_temperature;BME280_humidity;BME280_pressure;Samples;Min_cycle;Max_cycle;Signal;HPM_P1;HPM_P2
2022/09/12 00:02:25;;;;;;;9.73;7.73;;;;;;;11.14;100.00;96438.44;4954495;28;20405;-76
2022/09/12 00:04:51;;;;;;;10.30;7.30;;;;;;;11.08;100.00;96435.44;4973831;28;20061;-75
2022/09/12 00:07:16;;;;;;;13.90;9.13;;;;;;;11.02;100.00;96436.06;4941761;28;21255;-71
2022/09/12 00:09:42;;;;;;;13.00;8.57;;;;;;;10.90;100.00;96429.44;4931600;28;20132;-76
2022/09/12 00:12:08;;;;;;;11.53;7.97;;;;;;;10.93;100.00;96439.66;4924413;28;20587;-74
2022/09/12 00:14:34;;;;;;;11.70;8.23;;;;;;;10.99;100.00;96438.16;4928534;28;20128;-76
2022/09/12 00:17:00;;;;;;;12.03;8.27;;;;;;;11.06;100.00;96436.56;4931421;28;21370;-75
2022/09/12 00:19:27;;;;;;;14.13;8.43;;;;;;;11.07;100.00;96439.06;4940252;28;20024;-76
2022/09/12 00:21:53;;;;;;;13.30;7.97;;;;;;;11.13;100.00;96431.50;4923681;28;20028;-75
2022/09/12 00:24:20;;;;;;;12.47;9.07;;;;;;;11.07;100.00;96439.06;4889257;28;20033;-74
2022/09/12 00:26:45;;;;;;;12.67;9.07;;;;;;;11.16;100.00;96425.91;4906713;28;20543;-74
2022/09/12 00:29:16;;;;;;;10.43;8.30;;;;;;;11.08;100.00;96426.72;4933332;28;20151;-76
2022/09/12 00:31:42;;;;;;;15.27;8.93;;;;;;;11.05;100.00;96430.47;4925912;28;20116;-77
2022/09/12 00:34:08;;;;;;;13.53;8.30;;;;;;;11.05;100.00;96430.47;4899450;28;21366;-71
2022/09/12 00:36:34;;;;;;;13.93;9.07;;;;;;;10.91;100.00;96425.81;4920987;28;20033;-77
2022/09/12 00:39:00;;;;;;;15.17;10.03;;;;;;;10.92;100.00;96430.06;4929345;28;20468;-76
2022/09/12 00:41:31;;;;;;;10.57;9.20;;;;;;;10.81;100.00;96419.84;4905277;28;20024;-74
2022/09/12 00:44:00;;;;;;;12.67;10.40;;;;;;;10.81;100.00;96420.66;4895324;28;22842;-71
2022/09/12 00:46:38;;;;;;;14.20;10.30;;;;;;;10.68;100.00;96424.69;4904767;28;20032;-76
2022/09/12 00:49:06;;;;;;;12.13;9.67;;;;;;;10.70;100.00;96420.09;4907256;28;20036;-76
2022/09/12 00:51:35;;;;;;;14.60;11.30;;;;;;;10.67;100.00;96420.41;4886904;28;20028;-76
2022/09/12 00:54:11;;;;;;;13.77;11.10;;;;;;;10.64;100.00;96418.91;4916224;28;20025;-77
2022/09/12 00:56:41;;;;;;;13.30;11.00;;;;;;;10.65;100.00;96414.47;4901443;28;20044;-71
2022/09/12 00:59:21;;;;;;;15.07;11.83;;;;;;;10.64;100.00;96415.47;4897573;28;20032;-71
2022/09/12 01:01:49;;;;;;;13.13;11.10;;;;;;;10.67;100.00;96415.97;4900064;28;20044;-70
2022/09/12 01:04:16;;;;;;;13.93;10.70;;;;;;;10.69;100.00;96407.91;4938962;28;20516;-75
2022/09/12 01:06:43;;;;;;;13.40;11.17;;;;;;;10.67;100.00;96408.09;4938185;28;20177;-75
2022/09/12 01:09:14;;;;;;;14.10;11.07;;;;;;;10.64;100.00;96402.31;4884062;28;20273;-71
2022/09/12 01:11:41;;;;;;;14.50;11.03;;;;;;;10.67;100.00;96402.00;4933098;28;20039;-76
2022/09/12 01:14:08;;;;;;;14.50;11.03;;;;;;;10.66;100.00;96403.78;4910287;28;22640;-71
2022/09/12 01:16:35;;;;;;;14.07;10.23;;;;;;;10.67;100.00;96397.56;4888500;28;20044;-77
2022/09/12 01:19:30;;;;;;;14.10;11.37;;;;;;;10.67;100.00;96400.19;4921035;28;20033;-77
2022/09/12 01:22:21;;;;;;;14.83;12.43;;;;;;;10.69;100.00;96405.28;4945399;28;20044;-76
2022/09/12 01:25:23;;;;;;;16.23;11.60;;;;;;;10.61;100.00;96393.75;4916827;28;20037;-76
2022/09/12 01:28:11;;;;;;;15.10;11.33;;;;;;;10.61;100.00;96391.09;4926878;28;21096;-72
2022/09/12 01:30:59;;;;;;;15.40;11.40;;;;;;;10.66;100.00;96392.44;4943330;28;20063;-76
2022/09/12 01:33:28;;;;;;;16.17;12.43;;;;;;;10.67;100.00;96384.41;4932777;28;20407;-72
2022/09/12 01:36:10;;;;;;;17.43;12.13;;;;;;;10.65;100.00;96385.53;4938186;28;20093;-74
2022/09/12 01:38:49;;;;;;;14.67;11.90;;;;;;;10.65;100.00;96388.16;4934486;28;20086;-75
2022/09/12 01:41:52;;;;;;;13.87;11.33;;;;;;;10.61;100.00;96385.03;4923310;28;20040;-73
2022/09/12 01:44:36;;;;;;;16.02;12.95;;;;;;;10.64;100.00;96383.91;4927560;28;22387;-72
2022/09/12 01:47:12;;;;;;;16.93;14.50;;;;;;;10.62;100.00;96390.13;4938233;28;20024;-76
2022/09/12 01:49:56;;;;;;;16.73;13.50;;;;;;;10.54;100.00;96382.19;4904455;28;20163;-74
2022/09/12 01:52:31;;;;;;;18.17;13.63;;;;;;;10.53;100.00;96377.94;4884974;28;20032;-76
2022/09/12 01:55:22;;;;;;;17.33;13.67;;;;;;;10.43;100.00;96385.09;4933540;28;20110;-73
2022/09/12 01:58:12;;;;;;;15.07;11.90;;;;;;;10.48;100.00;96382.81;4908886;28;23791;-73
2022/09/12 02:01:15;;;;;;;15.10;12.57;;;;;;;10.55;100.00;96378.56;4873284;28;21267;-72
2022/09/12 02:03:48;;;;;;;16.45;13.25;;;;;;;10.50;100.00;96377.41;4858339;28;20060;-75
2022/09/12 02:06:20;;;;;;;10.43;8.43;;;;;;;10.52;100.00;96376.25;4853017;28;20086;-75
2022/09/12 02:08:53;;;;;;;15.23;12.55;;;;;;;10.47;100.00;96373.28;4874767;28;20096;-75
2022/09/12 02:11:20;;;;;;;15.73;13.00;;;;;;;10.37;100.00;96367.31;4861054;28;20032;-73
2022/09/12 02:13:57;;;;;;;16.47;12.00;;;;;;;10.31;100.00;96373.19;4897609;28;20489;-76
2022/09/12 02:16:48;;;;;;;16.40;13.00;;;;;;;10.28;100.00;96368.22;4868739;28;20115;-75
2022/09/12 02:19:16;;;;;;;16.87;12.23;;;;;;;10.29;100.00;96364.59;4883154;28;20037;-76
2022/09/12 02:21:50;;;;;;;16.53;12.03;;;;;;;10.29;100.00;96369.88;4899265;28;20128;-76
2022/09/12 02:24:16;;;;;;;13.77;11.40;;;;;;;10.19;100.00;96372.56;4882167;28;20044;-77
2022/09/12 02:27:08;;;;;;;15.13;13.47;;;;;;;10.20;100.00;96370.78;4868538;28;20024;-74
2022/09/12 02:29:35;;;;;;;15.50;12.83;;;;;;;10.18;100.00;96370.09;4863589;28;20107;-72
2022/09/12 02:32:08;;;;;;;16.70;12.90;;;;;;;10.21;100.00;96372.41;4874999;28;20730;-76
2022/09/12 02:34:52;;;;;;;16.90;13.43;;;;;;;10.15;100.00;96364.16;4894922;28;20036;-75
2022/09/12 02:37:55;;;;;;;17.03;13.50;;;;;;;10.15;100.00;96365.97;4863611;28;20120;-73
2022/09/12 02:40:21;;;;;;;18.13;13.93;;;;;;;10.12;100.00;96364.47;4899036;28;20036;-75
2022/09/12 02:42:48;;;;;;;18.43;13.77;;;;;;;10.12;100.00;96364.47;4901885;28;20139;-71
2022/09/12 02:45:14;;;;;;;17.57;14.13;;;;;;;10.14;100.00;96364.31;4917577;28;20854;-77
2022/09/12 02:48:16;;;;;;;20.07;14.50;;;;;;;10.16;100.00;96365.00;4920768;28;20147;-75
2022/09/12 02:50:42;;;;;;;16.30;13.63;;;;;;;10.09;100.00;96359.53;4897383;28;20091;-76
2022/09/12 02:53:09;;;;;;;20.90;15.33;;;;;;;10.09;100.00;96362.16;4909003;28;20079;-71
2022/09/12 02:55:37;;;;;;;19.60;15.90;;;;;;;10.03;100.00;96361.94;4934213;28;20045;-74
2022/09/12 02:58:05;;;;;;;18.87;15.43;;;;;;;9.99;100.00;96361.41;4934710;28;20365;-76
2022/09/12 03:00:38;;;;;;;18.33;13.90;;;;;;;10.00;100.00;96355.19;4928950;28;20063;-73
2022/09/12 03:03:26;;;;;;;;;;;;;;;9.93;100.00;96355.97;4956903;28;21157;-76
2022/09/12 03:06:01;;;;;;;20.53;14.33;;;;;;;9.89;100.00;96355.41;4928813;28;20381;-75
2022/09/12 03:08:45;;;;;;;19.17;15.33;;;;;;;9.90;100.00;96350.03;4944697;28;20118;-72
2022/09/12 03:11:30;;;;;;;17.17;14.70;;;;;;;9.93;100.00;96354.16;4922266;28;20043;-74
2022/09/12 03:14:07;;;;;;;19.30;15.30;;;;;;;9.94;100.00;96349.72;4945055;28;21366;-71
2022/09/12 03:16:52;;;;;;;18.40;13.87;;;;;;;9.91;100.00;96345.59;4947138;28;20037;-73
2022/09/12 03:19:33;;;;;;;21.60;15.47;;;;;;;9.92;100.00;96349.84;4941916;28;20037;-72
2022/09/12 03:22:22;;;;;;;19.60;15.87;;;;;;;9.89;100.00;96345.75;4944140;28;20040;-76
2022/09/12 03:25:13;;;;;;;16.73;14.10;;;;;;;9.92;100.00;96347.22;4931376;28;20165;-73
2022/09/12 03:27:46;;;;;;;19.37;14.03;;;;;;;9.91;100.00;96346.41;4899120;28;20098;-77
2022/09/12 03:30:11;;;;;;;16.30;13.23;;;;;;;9.93;100.00;96353.34;4919410;28;20044;-73
2022/09/12 03:32:46;;;;;;;17.60;14.23;;;;;;;9.90;100.00;96354.44;4908728;28;22071;-72
2022/09/12 03:35:13;;;;;;;13.57;12.13;;;;;;;9.91;100.00;96351.66;4895703;28;20517;-74
2022/09/12 03:37:39;;;;;;;19.90;14.20;;;;;;;9.86;100.00;96350.50;4899801;28;22975;-71
2022/09/12 03:40:11;;;;;;;15.83;13.00;;;;;;;9.81;100.00;96350.91;4894289;28;20122;-72
2022/09/12 03:42:37;;;;;;;18.63;14.23;;;;;;;9.78;100.00;96351.22;4910298;28;20037;-74
2022/09/12 03:45:04;;;;;;;15.63;12.80;;;;;;;9.77;100.00;96344.31;4872081;28;20705;-76
2022/09/12 03:47:30;;;;;;;16.73;12.93;;;;;;;9.70;100.00;96343.28;4854948;28;20154;-72
2022/09/12 03:49:56;;;;;;;17.47;13.53;;;;;;;9.65;100.00;96350.78;4888329;28;20037;-74
2022/09/12 03:52:22;;;;;;;15.13;12.63;;;;;;;9.67;100.00;96348.84;4888321;28;20070;-73
2022/09/12 03:54:47;;;;;;;15.47;12.77;;;;;;;9.61;100.00;96344.19;4856629;28;21108;-71
2022/09/12 03:57:13;;;;;;;20.97;14.03;;;;;;;9.49;100.00;96340.13;4895931;28;20033;-72
2022/09/12 03:59:40;;;;;;;17.03;13.23;;;;;;;9.52;100.00;96351.16;4879161;28;21448;-77
2022/09/12 04:02:08;;;;;;;16.17;12.87;;;;;;;9.50;100.00;96352.28;4907613;28;20032;-75
2022/09/12 04:04:34;;;;;;;18.93;13.43;;;;;;;9.53;100.00;96352.81;4913247;28;20036;-72
2022/09/12 04:06:59;;;;;;;17.07;13.20;;;;;;;9.55;100.00;96350.84;4945741;28;20044;-75
2022/09/12 04:09:25;;;;;;;18.10;13.03;;;;;;;9.57;100.00;96338.41;4922770;28;20842;-72
2022/09/12 04:11:51;;;;;;;17.33;13.50;;;;;;;9.53;100.00;96347.56;4901901;28;20812;-74
2022/09/12 04:14:16;;;;;;;19.30;13.77;;;;;;;9.55;100.00;96345.59;4898479;28;20071;-71
2022/09/12 04:16:42;;;;;;;17.80;13.37;;;;;;;9.63;100.00;96348.31;4926599;28;20029;-73
2022/09/12 04:19:10;;;;;;;16.17;12.93;;;;;;;9.62;100.00;96343.19;4923978;28;20047;-71
2022/09/12 04:21:36;;;;;;;20.53;14.43;;;;;;;9.56;100.00;96342.03;4908419;28;20151;-75
2022/09/12 04:24:02;;;;;;;22.60;13.23;;;;;;;9.52;100.00;96345.91;4921649;28;20033;-75
2022/09/12 04:26:28;;;;;;;17.23;12.90;;;;;;;9.52;100.00;96345.91;4918611;28;21219;-71
2022/09/12 04:28:56;;;;;;;21.63;12.60;;;;;;;9.53;100.00;96346.75;4911960;28;20525;-77
2022/09/12 04:31:22;;;;;;;17.63;12.40;;;;;;;9.50;100.00;96352.28;4939675;28;20041;-75
2022/09/12 04:33:59;;;;;;;17.13;12.77;;;;;;;9.48;100.00;96352.44;4941764;28;20024;-74
2022/09/12 04:36:27;;;;;;;18.37;12.50;;;;;;;9.49;100.00;96345.38;4944747;28;20041;-75
2022/09/12 04:38:53;;;;;;;17.93;12.03;;;;;;;9.53;100.00;96347.56;4922172;28;20028;-76
2022/09/12 04:41:33;;;;;;;15.03;12.43;;;;;;;9.48;100.00;96352.44;4938785;28;20033;-74
2022/09/12 04:44:09;;;;;;;16.70;13.13;;;;;;;9.49;100.00;96348.00;4916781;28;20848;-71
2022/09/12 04:46:37;;;;;;;16.00;12.10;;;;;;;9.52;100.00;96345.91;4901434;28;20056;-72
2022/09/12 04:49:04;;;;;;;16.20;12.70;;;;;;;9.54;100.00;96346.59;4903715;28;22004;-71
2022/09/12 04:51:32;;;;;;;15.93;12.33;;;;;;;9.55;100.00;96339.53;4916006;28;20384;-73
2022/09/12 04:54:04;;;;;;;16.17;13.00;;;;;;;9.56;100.00;96339.41;4928341;28;20128;-72
2022/09/12 04:56:31;;;;;;;18.80;13.33;;;;;;;9.53;100.00;96341.50;4923871;28;20036;-77
2022/09/12 04:58:58;;;;;;;20.90;13.30;;;;;;;9.55;100.00;96337.72;4937741;28;21084;-75
2022/09/12 05:01:24;;;;;;;18.27;13.33;;;;;;;9.53;100.00;96344.94;4945481;28;20039;-74
2022/09/12 05:03:50;;;;;;;17.47;12.47;;;;;;;9.51;100.00;96339.00;4931668;28;20044;-72
2022/09/12 05:06:19;;;;;;;16.13;12.53;;;;;;;9.53;100.00;96341.50;4938923;28;20047;-74
2022/09/12 05:08:46;;;;;;;17.00;13.47;;;;;;;9.58;100.00;96350.56;4929371;28;20094;-75
2022/09/12 05:11:17;;;;;;;16.83;13.93;;;;;;;9.60;100.00;96338.09;4929611;28;20033;-73
2022/09/12 05:13:43;;;;;;;18.83;13.13;;;;;;;9.62;100.00;96348.44;4928295;28;20029;-75
2022/09/12 05:16:11;;;;;;;17.97;13.70;;;;;;;9.66;100.00;96342.75;4938286;28;22667;-71
2022/09/12 05:18:37;;;;;;;18.67;14.00;;;;;;;9.71;100.00;96341.47;5009079;28;20028;-75
2022/09/12 05:21:05;;;;;;;20.23;13.80;;;;;;;9.86;100.00;96339.97;5045291;28;20504;-75
2022/09/12 05:23:31;;;;;;;18.70;14.43;;;;;;;9.98;100.00;96341.38;5064208;28;20477;-74
2022/09/12 05:25:58;;;;;;;17.93;13.87;;;;;;;10.01;100.00;96330.56;5064376;28;20036;-75
2022/09/12 05:28:27;;;;;;;17.77;13.27;;;;;;;10.30;100.00;96337.38;5066606;28;20032;-77
2022/09/12 05:31:12;;;;;;;17.87;13.70;;;;;;;10.37;100.00;96335.75;5046825;28;20049;-76
2022/09/12 05:33:40;;;;;;;18.63;14.23;;;;;;;10.54;100.00;96336.69;5066683;28;20041;-76
2022/09/12 05:36:09;;;;;;;17.23;13.90;;;;;;;10.40;100.00;96339.88;5065866;28;20040;-76
2022/09/12 05:38:36;;;;;;;21.80;14.37;;;;;;;10.54;100.00;96345.38;5060779;28;20085;-77
2022/09/12 05:41:10;;;;;;;19.97;14.20;;;;;;;10.72;100.00;96339.22;5060306;28;20036;-75
2022/09/12 05:43:37;;;;;;;20.57;14.60;;;;;;;10.67;100.00;96337.06;5066455;28;20032;-73
2022/09/12 05:46:07;;;;;;;17.40;12.13;;;;;;;11.06;100.00;96333.91;5072160;28;20040;-76
2022/09/12 05:48:34;;;;;;;16.90;12.17;;;;;;;11.08;100.00;96339.84;5048214;28;20056;-74
2022/09/12 05:51:02;;;;;;;19.87;13.00;;;;;;;11.38;100.00;96340.28;5067600;28;20028;-75
2022/09/12 05:53:29;;;;;;;14.70;12.37;;;;;;;11.79;100.00;96327.97;5067377;28;20036;-77
2022/09/12 05:56:07;;;;;;;18.50;12.00;;;;;;;11.66;100.00;96327.63;5047788;28;20033;-77
2022/09/12 05:58:34;;;;;;;15.60;12.07;;;;;;;11.55;100.00;96332.22;5063991;28;20668;-76
2022/09/12 06:01:04;;;;;;;16.60;11.30;;;;;;;11.79;100.00;96327.97;5058293;28;20074;-75
2022/09/12 06:03:30;;;;;;;22.63;12.20;;;;;;;12.10;100.00;96324.69;5070021;28;20040;-77
2022/09/12 06:05:56;;;;;;;15.00;11.10;;;;;;;12.22;100.00;96323.38;5066511;28;20040;-75
2022/09/12 06:08:21;;;;;;;17.23;11.87;;;;;;;12.37;100.00;96326.94;5071680;28;20041;-77
2022/09/12 06:10:48;;;;;;;17.27;11.53;;;;;;;13.18;100.00;96319.75;5064263;28;20036;-77
2022/09/12 06:13:13;;;;;;;16.50;10.53;;;;;;;12.87;100.00;96312.63;5064444;28;20040;-75
2022/09/12 06:15:39;;;;;;;12.67;10.60;;;;;;;12.69;100.00;96318.13;5060893;28;20066;-72
2022/09/12 06:18:05;;;;;;;17.57;11.10;;;;;;;13.61;100.00;96301.66;5044089;28;20028;-76
2022/09/12 06:20:30;;;;;;;12.80;9.43;;;;;;;13.77;100.00;96304.19;5050474;28;20032;-75
2022/09/12 06:22:56;;;;;;;12.33;9.80;;;;;;;13.50;100.00;96307.38;5067673;28;20036;-76
2022/09/12 06:25:22;;;;;;;14.73;9.63;;;;;;;12.77;100.00;96306.72;5063396;28;20462;-76
2022/09/12 06:27:47;;;;;;;13.50;10.73;;;;;;;13.28;100.00;96307.19;5077048;28;20058;-77
2022/09/12 06:30:13;;;;;;;14.67;11.00;;;;;;;13.50;100.00;96302.09;5065482;28;20111;-75
2022/09/12 06:32:39;;;;;;;15.70;10.13;;;;;;;13.60;100.00;96298.22;5063866;28;20098;-77
2022/09/12 06:35:05;;;;;;;13.23;10.53;;;;;;;14.04;100.00;96294.06;5073079;28;20064;-76
2022/09/12 06:37:31;;;;;;;14.07;10.50;;;;;;;13.84;100.00;96301.66;5074299;28;20028;-72
2022/09/12 06:39:57;;;;;;;14.50;9.50;;;;;;;14.91;100.00;96296.13;5069786;28;20028;-76
2022/09/12 06:42:23;;;;;;;12.80;9.17;;;;;;;15.05;100.00;96287.34;5070655;28;20033;-76
2022/09/12 06:44:55;;;;;;;11.20;8.73;;;;;;;15.74;100.00;96293.00;5070203;28;20524;-77
2022/09/12 06:47:20;;;;;;;11.37;8.77;;;;;;;16.00;100.00;96279.16;5056906;28;20037;-77
2022/09/12 06:49:46;;;;;;;12.13;8.48;;;;;;;16.16;100.00;96279.88;5070114;28;20036;-77
2022/09/12 06:52:12;;;;;;;13.32;8.50;;;;;;;16.64;100.00;96288.78;5070029;28;20051;-76
2022/09/12 06:54:37;;;;;;;11.82;8.52;;;;;;;16.89;100.00;96280.34;5048163;28;20044;-77
2022/09/12 06:57:03;;;;;;;12.60;8.52;;;;;;;16.96;100.00;96278.53;5063824;28;20032;-75
2022/09/12 06:59:29;;;;;;;9.23;7.88;;;;;;;17.26;100.00;96272.91;5067408;28;20060;-77
2022/09/12 07:01:55;;;;;;;12.02;7.57;;;;;;;18.07;100.00;96267.53;5070335;28;20028;-73
2022/09/12 07:04:20;;;;;;;10.45;6.97;;;;;;;18.10;100.00;96273.25;5044149;28;20036;-78
2022/09/12 07:06:46;;;;;;;9.90;7.43;;;;;;;18.50;100.00;96278.53;5068689;28;20029;-75
2022/09/12 07:09:16;;;;;;;11.80;7.82;;;;;;;17.67;100.00;96281.59;5067929;28;20474;-72
2022/09/12 07:11:43;;;;;;;9.57;7.80;;;;;;;17.86;100.00;96269.38;5067314;28;20074;-77
2022/09/12 07:14:11;;;;;;;9.27;7.57;;;;;;;18.60;100.00;96270.94;5067194;28;20577;-75
2022/09/12 07:16:37;;;;;;;9.68;7.30;;;;;;;18.17;100.00;96269.78;5068804;28;20090;-76
2022/09/12 07:19:05;;;;;;;8.75;6.70;;;;;;;19.27;100.00;96276.06;5067818;28;20531;-77
2022/09/12 07:21:31;;;;;;;9.10;7.53;;;;;;;19.10;100.00;96269.56;5055435;28;20041;-77
2022/09/12 07:23:57;;;;;;;8.77;7.47;;;;;;;19.73;100.00;96273.16;5068670;28;20478;-75
2022/09/12 07:26:25;;;;;;;10.50;8.30;;;;;;;19.02;100.00;96273.31;5068693;28;20143;-77
2022/09/12 07:28:53;;;;;;;10.07;7.88;;;;;;;18.73;100.00;96278.09;5051841;28;20113;-77
2022/09/12 07:31:23;;;;;;;10.63;8.05;;;;;;;18.86;100.00;96269.25;5052798;28;20048;-77
2022/09/12 07:33:50;;;;;;;8.38;6.65;;;;;;;20.44;100.00;96271.94;5066589;28;20032;-76
2022/09/12 07:36:18;;;;;;;9.38;6.82;;;;;;;20.16;100.00;96269.75;5067750;28;20452;-78
2022/09/12 07:38:45;;;;;;;11.52;8.43;;;;;;;20.83;100.00;96277.97;5071380;28;20027;-76
2022/09/12 07:41:17;;;;;;;8.63;7.38;;;;;;;20.75;100.00;96267.53;5068822;28;20059;-77
2022/09/12 07:43:43;;;;;;;7.93;6.57;;;;;;;21.86;100.00;96265.50;5061538;28;20827;-78
2022/09/12 07:46:09;;;;;;;9.05;7.65;;;;;;;21.10;100.00;96272.31;5050889;28;20033;-76
2022/09/12 07:48:34;;;;;;;7.95;6.82;;;;;;;20.85;100.00;96275.06;5067004;28;20094;-75
2022/09/12 07:51:02;;;;;;;8.90;7.57;;;;;;;20.78;100.00;96268.97;5065601;28;20086;-77
2022/09/12 07:53:37;;;;;;;8.80;7.63;;;;;;;21.64;100.00;96271.41;5061268;28;20039;-77
2022/09/12 07:56:04;;;;;;;8.45;6.70;;;;;;;21.34;100.00;96268.72;5069640;28;20037;-76
2022/09/12 07:58:31;;;;;;;9.05;7.95;;;;;;;21.05;100.00;96264.13;5068066;28;20044;-77
2022/09/12 08:01:09;;;;;;;8.65;7.18;;;;;;;22.28;100.00;96265.50;5065851;28;20060;-77
2022/09/12 08:03:35;;;;;;;9.43;7.40;;;;;;;22.13;100.00;96271.25;5062255;28;20372;-78
2022/09/12 08:06:06;;;;;;;9.82;7.57;;;;;;;21.20;100.00;96269.91;5066633;28;20042;-76
2022/09/12 08:08:33;;;;;;;8.48;6.45;;;;;;;22.61;100.00;96269.47;5048401;28;20534;-77
2022/09/12 08:11:01;;;;;;;9.20;7.40;;;;;;;23.00;99.27;96275.94;5067031;28;20028;-76
2022/09/12 08:13:28;;;;;;;7.55;6.32;;;;;;;23.61;94.60;96273.63;5068486;28;20032;-77
2022/09/12 08:16:03;;;;;;;7.35;5.50;;;;;;;23.46;94.65;96272.31;5068765;28;20043;-78
2022/09/12 08:18:31;;;;;;;7.80;4.20;;;;;;;23.98;86.62;96263.34;5039321;28;20029;-77
2022/09/12 08:21:03;;;;;;;5.97;4.03;;;;;;;22.75;92.58;96274.31;5049456;28;20067;-77
2022/09/12 08:23:29;;;;;;;4.72;3.17;;;;;;;21.88;95.91;96274.94;5066910;28;20050;-77
2022/09/12 08:25:56;;;;;;;6.30;3.30;;;;;;;22.69;89.87;96279.81;5063145;28;20033;-73
2022/09/12 08:28:24;;;;;;;4.75;3.15;;;;;;;22.15;88.20;96279.91;5049562;28;20535;-77
2022/09/12 08:30:50;;;;;;;6.15;3.50;;;;;;;23.07;81.43;96279.31;5068345;28;20037;-77
2022/09/12 08:33:16;;;;;;;6.10;3.25;;;;;;;24.26;76.55;96270.50;5049478;28;20028;-77
2022/09/12 08:35:41;;;;;;;5.75;3.15;;;;;;;23.07;80.97;96284.66;5068063;28;20033;-77
2022/09/12 08:38:07;;;;;;;7.30;3.13;;;;;;;23.20;78.09;96280.91;5050691;28;20032;-77
2022/09/12 08:40:52;;;;;;;5.25;3.05;;;;;;;22.65;80.86;96279.47;5048868;28;20102;-73
2022/09/12 08:43:45;;;;;;;5.18;2.50;;;;;;;23.34;76.72;96270.72;5058973;28;20047;-77
2022/09/12 08:46:21;;;;;;;5.32;2.70;;;;;;;23.28;76.70;96269.81;5067308;28;20032;-77
2022/09/12 08:48:47;;;;;;;4.70;2.70;;;;;;;22.62;79.35;96277.25;5060555;28;20032;-77
2022/09/12 08:51:18;;;;;;;4.32;2.47;;;;;;;23.58;69.03;96269.59;5067275;28;20504;-74
2022/09/12 08:53:46;;;;;;;4.20;2.42;;;;;;;23.84;66.68;96264.69;5062978;28;20033;-76
2022/09/12 08:56:12;;;;;;;4.57;2.40;;;;;;;23.84;66.29;96265.50;5066782;28;20482;-74
2022/09/12 08:58:43;;;;;;;2.70;2.08;;;;;;;23.46;70.86;96268.81;5063576;28;20057;-77
2022/09/12 09:01:27;;;;;;;6.40;2.15;;;;;;;23.40;73.37;96265.22;5061958;28;20123;-77
2022/09/12 09:04:12;;;;;;;5.07;2.50;;;;;;;22.86;69.80;96270.00;5063710;28;20044;-78
2022/09/12 09:06:58;;;;;;;4.97;2.15;;;;;;;23.48;71.47;96267.53;5061284;28;20115;-77
2022/09/12 09:10:01;;;;;;;3.97;2.30;;;;;;;24.09;66.66;96257.06;5076034;28;20055;-75
2022/09/12 09:13:02;;;;;;;3.50;2.15;;;;;;;23.16;67.52;96269.03;5049693;28;20394;-77
2022/09/12 09:15:40;;;;;;;3.70;2.17;;;;;;;23.78;64.12;96260.31;5066238;28;20028;-73
2022/09/12 09:18:28;;;;;;;4.90;2.40;;;;;;;23.68;67.01;96255.56;5049207;28;20505;-77
2022/09/12 09:21:17;;;;;;;2.63;1.98;;;;;;;24.26;59.13;96256.25;5057565;28;20037;-77
2022/09/12 09:23:49;;;;;;;4.70;2.22;;;;;;;23.41;65.17;96264.19;5042614;28;20041;-77
2022/09/12 09:26:33;;;;;;;6.93;2.08;;;;;;;24.36;58.48;96257.22;5065475;28;20036;-77
2022/09/12 09:29:13;;;;;;;3.90;2.25;;;;;;;24.06;55.88;96257.53;5060548;28;20102;-76
2022/09/12 09:31:40;;;;;;;3.40;2.30;;;;;;;24.26;55.57;96257.06;5062568;28;20044;-77
2022/09/12 09:34:23;;;;;;;5.03;2.22;;;;;;;24.26;57.29;96251.69;5050550;28;20033;-77
2022/09/12 09:37:00;;;;;;;;;;;;;;;24.99;57.17;96247.09;5061340;28;20041;-77
2022/09/12 09:39:41;;;;;;;4.00;2.30;;;;;;;25.06;48.91;96247.69;5063066;28;20262;-77
2022/09/12 09:42:19;;;;;;;5.97;2.33;;;;;;;23.70;55.60;96254.25;5048421;28;20039;-77
2022/09/12 09:44:47;;;;;;;3.22;2.30;;;;;;;24.05;57.51;96247.88;5060487;28;20039;-77
2022/09/12 09:47:14;;;;;;;3.00;1.80;;;;;;;25.21;52.79;96243.59;5064019;28;20090;-76
2022/09/12 09:49:40;;;;;;;2.90;1.85;;;;;;;25.47;50.77;96244.69;5056213;28;20072;-76
2022/09/12 09:52:07;;;;;;;6.43;2.40;;;;;;;24.83;50.74;96245.25;5065904;28;20123;-77
2022/09/12 09:54:49;;;;;;;3.95;2.33;;;;;;;25.12;49.56;96241.34;5064900;28;20405;-74
2022/09/12 09:57:33;;;;;;;4.63;1.80;;;;;;;26.12;45.78;96240.19;5064336;28;20036;-77
2022/09/12 10:00:20;;;;;;;4.70;2.13;;;;;;;25.82;46.86;96237.00;5063939;28;20048;-76
2022/09/12 10:03:07;;;;;;;5.13;2.70;;;;;;;26.40;45.14;96239.06;5067694;28;20043;-76
2022/09/12 10:05:44;;;;;;;4.43;2.60;;;;;;;26.38;46.36;96227.72;5046957;28;20600;-77
2022/09/12 10:08:18;;;;;;;7.20;2.75;;;;;;;26.26;47.74;96238.69;5064990;28;20599;-77
2022/09/12 10:11:05;;;;;;;5.75;2.40;;;;;;;26.05;48.64;96243.09;5061486;28;20029;-77
2022/09/12 10:13:36;;;;;;;6.35;2.55;;;;;;;26.16;48.75;96238.63;5081249;28;20056;-77
2022/09/12 10:16:16;;;;;;;4.10;2.30;;;;;;;27.03;44.73;96240.78;5057162;28;20037;-75
2022/09/12 10:18:42;;;;;;;4.20;2.58;;;;;;;25.43;48.44;96238.19;5057552;28;20028;-77
2022/09/12 10:21:38;;;;;;;4.40;1.98;;;;;;;26.54;47.69;96232.97;5060029;28;20086;-79
2022/09/12 10:24:29;;;;;;;3.20;2.10;;;;;;;27.68;44.81;96235.06;5067610;28;20040;-79
2022/09/12 10:27:04;;;;;;;4.68;2.55;;;;;;;25.35;48.56;96234.06;5066285;28;20036;-78
2022/09/12 10:29:34;;;;;;;3.85;2.08;;;;;;;26.39;46.27;96224.78;5065748;28;20037;-77
2022/09/12 10:32:04;;;;;;;4.00;2.35;;;;;;;25.93;48.47;96231.69;5056653;28;20413;-77
2022/09/12 10:34:38;;;;;;;2.97;1.90;;;;;;;27.25;46.14;96226.31;5059142;28;20045;-77
2022/09/12 10:37:06;;;;;;;6.20;2.28;;;;;;;26.39;45.83;96223.94;5066651;28;20111;-77
2022/09/12 10:39:34;;;;;;;3.35;1.75;;;;;;;25.77;49.21;96226.13;5046029;28;20513;-77
2022/09/12 10:42:02;;;;;;;2.75;1.98;;;;;;;26.68;43.73;96237.91;5057205;28;20039;-77
2022/09/12 10:44:33;;;;;;;3.47;2.03;;;;;;;25.49;45.85;96229.91;5062765;28;20053;-76
2022/09/12 10:47:18;;;;;;;3.05;2.10;;;;;;;26.37;44.30;96228.78;5065310;28;20064;-76
2022/09/12 10:49:44;;;;;;;3.30;2.05;;;;;;;27.29;42.08;96231.97;5045739;28;20024;-73
2022/09/12 10:52:23;;;;;;;3.03;1.80;;;;;;;27.38;43.34;96225.81;5066554;28;20032;-77
2022/09/12 10:54:50;;;;;;;3.45;1.70;;;;;;;27.48;43.19;96231.22;5064840;28;20036;-74
2022/09/12 10:57:36;;;;;;;2.75;1.90;;;;;;;25.23;47.17;96228.81;5064160;28;20468;-74
2022/09/12 11:00:16;;;;;;;3.00;1.77;;;;;;;24.68;50.07;96238.63;5063979;28;20036;-74
2022/09/12 11:03:01;;;;;;;3.85;2.03;;;;;;;26.03;47.25;96227.19;5062413;28;20036;-76
2022/09/12 11:05:49;;;;;;;5.32;2.35;;;;;;;26.89;44.94;96231.53;5060945;28;20470;-76
2022/09/12 11:08:47;;;;;;;2.15;1.60;;;;;;;27.52;44.46;96228.00;5044173;28;20043;-75
2022/09/12 11:11:15;;;;;;;6.47;2.13;;;;;;;26.79;43.96;96228.78;5055717;28;20045;-74
2022/09/12 11:14:08;;;;;;;2.83;2.22;;;;;;;26.82;44.34;96222.88;5069576;28;20064;-74
2022/09/12 11:16:54;;;;;;;3.20;2.10;;;;;;;27.29;43.08;96215.78;5059550;28;20781;-75
2022/09/12 11:19:34;;;;;;;2.45;1.77;;;;;;;26.93;43.30;96218.34;5067486;28;20389;-77
2022/09/12 11:22:09;;;;;;;3.88;2.25;;;;;;;26.71;44.93;96213.91;5060959;28;20060;-76
2022/09/12 11:24:47;;;;;;;2.75;1.77;;;;;;;25.64;47.42;96211.19;5062833;28;20124;-74
2022/09/12 11:27:37;;;;;;;3.10;2.35;;;;;;;25.90;45.66;96211.47;5063554;28;20039;-75
2022/09/12 11:30:16;;;;;;;2.60;1.77;;;;;;;27.24;43.40;96206.59;5048003;28;20040;-74
2022/09/12 11:32:41;;;;;;;2.85;1.67;;;;;;;27.70;42.08;96204.00;5067700;28;20060;-76
2022/09/12 11:35:27;;;;;;;4.88;2.10;;;;;;;27.71;42.81;96199.41;5069209;28;20064;-74
2022/09/12 11:38:17;;;;;;;3.65;1.80;;;;;;;27.93;41.23;96208.09;5068242;28;20428;-75
2022/09/12 11:40:58;;;;;;;4.13;2.13;;;;;;;27.27;40.57;96207.97;5063667;28;20033;-75
2022/09/12 11:43:47;;;;;;;3.13;1.60;;;;;;;27.04;41.02;96204.63;5065327;28;20043;-73
2022/09/12 11:46:17;;;;;;;3.85;1.90;;;;;;;27.44;39.38;96200.44;5057411;28;20029;-75
2022/09/12 11:48:54;;;;;;;2.25;1.75;;;;;;;27.78;38.62;96191.88;5064725;28;20039;-76